createdAt,value
2019-02-20T00:00:41.680Z,5.07
2019-02-20T00:06:00.316Z,5.11
2019-02-20T00:11:18.870Z,5.05
2019-02-20T00:16:37.519Z,4.95
2019-02-20T00:21:56.149Z,4.87
2019-02-20T00:27:14.714Z,4.88
2019-02-20T00:32:33.270Z,4.88
2019-02-20T00:37:51.815Z,4.83
2019-02-20T00:43:10.642Z,4.91
2019-02-20T00:48:39.504Z,4.71
2019-02-20T00:53:59.631Z,4.72
2019-02-20T00:59:18.261Z,4.55
2019-02-20T01:04:37.202Z,4.67
2019-02-20T01:09:55.705Z,4.83
2019-02-20T01:15:14.270Z,4.84
2019-02-20T01:20:32.894Z,4.86
2019-02-20T01:25:51.362Z,4.79
2019-02-20T01:31:09.975Z,4.73
2019-02-20T01:36:28.517Z,4.68
2019-02-20T01:41:46.980Z,4.66
2019-02-20T01:47:05.612Z,4.45
2019-02-20T01:52:24.149Z,4.45
2019-02-20T01:57:42.765Z,4.31
2019-02-20T02:03:01.399Z,4.42
2019-02-20T02:08:20.015Z,4.58
2019-02-20T02:13:38.521Z,4.48
2019-02-20T02:18:57.141Z,4.51
2019-02-20T02:24:15.756Z,4.47
2019-02-20T02:29:34.400Z,4.47
2019-02-20T02:34:53.016Z,4.59
2019-02-20T02:40:11.710Z,4.52
2019-02-20T02:45:30.265Z,4.57
2019-02-20T02:50:49.647Z,4.58
2019-02-20T02:56:08.281Z,4.50
2019-02-20T03:01:26.904Z,4.47
2019-02-20T03:06:45.528Z,4.61
2019-02-20T03:12:04.140Z,4.53
2019-02-20T03:17:22.753Z,4.61
2019-02-20T03:22:41.245Z,4.57
2019-02-20T03:27:59.882Z,4.62
2019-02-20T03:33:18.424Z,4.53
2019-02-20T03:38:37.454Z,4.57
2019-02-20T03:43:56.044Z,4.54
2019-02-20T03:49:14.585Z,4.63
2019-02-20T03:54:33.281Z,4.54
2019-02-20T03:59:51.899Z,4.56
2019-02-20T04:05:10.796Z,4.61
2019-02-20T04:10:29.411Z,4.66
2019-02-20T04:15:47.884Z,4.65
2019-02-20T04:21:06.482Z,4.67
2019-02-20T04:26:24.948Z,4.64
2019-02-20T04:31:43.649Z,4.66
2019-02-20T04:37:02.274Z,4.60
2019-02-20T04:42:21.162Z,4.61
2019-02-20T04:47:39.784Z,4.67
2019-02-20T04:52:58.483Z,4.62
2019-02-20T04:58:19.284Z,4.61
2019-02-20T05:03:37.818Z,4.68
2019-02-20T05:08:56.447Z,4.68
2019-02-20T05:14:15.055Z,4.66
2019-02-20T05:19:33.749Z,4.66
2019-02-20T05:24:52.294Z,4.65
2019-02-20T05:30:10.939Z,4.57
2019-02-20T05:35:29.750Z,4.41
2019-02-20T05:40:48.365Z,4.29
2019-02-20T05:46:08.058Z,4.20
2019-02-20T05:51:26.758Z,4.16
2019-02-20T05:56:45.249Z,4.18
2019-02-20T06:02:03.863Z,4.17
2019-02-20T06:07:22.479Z,4.17
2019-02-20T06:12:41.095Z,4.27
2019-02-20T06:17:59.646Z,4.15
2019-02-20T06:23:18.251Z,4.12
2019-02-20T06:28:36.792Z,4.26
2019-02-20T06:33:55.372Z,4.28
2019-02-20T06:39:14.707Z,4.24
2019-02-20T06:44:33.182Z,4.23
2019-02-20T06:49:52.796Z,4.16
2019-02-20T06:55:12.550Z,4.19
2019-02-20T07:00:31.089Z,4.39
2019-02-20T07:05:50.818Z,4.39
2019-02-20T07:11:24.327Z,4.47
2019-02-20T07:17:06.822Z,4.51
2019-02-20T07:22:37.459Z,4.70
2019-02-20T07:27:58.993Z,4.76
2019-02-20T07:33:17.596Z,4.86
2019-02-20T07:38:36.070Z,4.91
2019-02-20T07:43:54.615Z,5.00
2019-02-20T07:49:13.185Z,5.04
2019-02-20T07:54:31.731Z,5.17
2019-02-20T07:59:50.276Z,5.26
2019-02-20T08:05:08.891Z,5.46
2019-02-20T08:10:27.522Z,5.76
2019-02-20T08:15:46.182Z,6.01
2019-02-20T08:21:04.804Z,6.16
2019-02-20T08:26:23.623Z,5.94
2019-02-20T08:31:42.210Z,6.40
2019-02-20T08:37:00.765Z,7.11
2019-02-20T08:42:19.394Z,7.91
2019-02-20T08:47:37.959Z,7.97
2019-02-20T08:52:56.444Z,7.65
2019-02-20T08:58:14.991Z,7.47
2019-02-20T09:03:33.570Z,7.33
2019-02-20T09:08:52.057Z,7.39
2019-02-20T09:14:10.689Z,7.81
2019-02-20T09:19:29.253Z,8.26
2019-02-20T09:24:47.972Z,8.60
2019-02-20T09:30:09.508Z,8.83
2019-02-20T09:35:27.985Z,8.84
2019-02-20T09:40:46.611Z,9.20
2019-02-20T09:46:05.221Z,9.06
2019-02-20T09:51:23.840Z,9.28
2019-02-20T09:56:42.408Z,9.16
2019-02-20T10:02:01.164Z,9.27
2019-02-20T10:07:19.788Z,9.73
2019-02-20T10:12:38.696Z,9.88
2019-02-20T10:17:57.260Z,10.24
2019-02-20T10:23:15.828Z,9.65
2019-02-20T10:28:34.415Z,9.90
2019-02-20T10:33:53.216Z,10.45
2019-02-20T10:39:11.769Z,10.49
2019-02-20T10:44:30.348Z,11.27
2019-02-20T10:49:48.835Z,11.15
2019-02-20T10:55:08.955Z,10.99
2019-02-20T11:00:30.655Z,11.32
2019-02-20T11:05:49.215Z,11.45
2019-02-20T11:11:07.770Z,11.45
2019-02-20T11:16:26.246Z,10.99
2019-02-20T11:21:44.870Z,10.85
2019-02-20T11:27:03.435Z,10.73
2019-02-20T11:32:22.068Z,10.88
2019-02-20T11:37:40.680Z,10.82
2019-02-20T11:42:59.220Z,11.43
2019-02-20T11:48:17.734Z,11.46
2019-02-20T11:53:37.378Z,11.19
2019-02-20T11:58:56.125Z,10.99
2019-02-20T12:04:14.747Z,11.28
2019-02-20T12:09:33.364Z,11.42
2019-02-20T12:14:51.988Z,11.40
2019-02-20T12:20:10.723Z,10.99
2019-02-20T12:25:29.265Z,10.99
2019-02-20T12:30:47.829Z,10.80
2019-02-20T12:36:06.446Z,11.23
2019-02-20T12:41:25.063Z,11.78
2019-02-20T12:46:43.690Z,12.16
2019-02-20T12:52:02.320Z,12.04
2019-02-20T12:57:20.947Z,11.42
2019-02-20T13:02:39.568Z,11.22
2019-02-20T13:07:58.178Z,11.18
2019-02-20T13:13:16.725Z,11.15
2019-02-20T13:18:35.352Z,11.08
2019-02-20T13:23:53.898Z,11.11
2019-02-20T13:29:12.457Z,11.36
2019-02-20T13:34:31.103Z,11.32
2019-02-20T13:39:49.587Z,11.29
2019-02-20T13:45:10.079Z,11.35
2019-02-20T13:50:28.706Z,11.25
2019-02-20T13:55:47.333Z,11.49
2019-02-20T14:01:05.870Z,11.36
2019-02-20T14:06:24.366Z,11.23
2019-02-20T14:11:43.924Z,11.31
2019-02-20T14:17:02.516Z,11.14
2019-02-20T14:22:21.056Z,10.89
2019-02-20T14:27:39.686Z,10.96
2019-02-20T14:32:58.260Z,11.03
2019-02-20T14:38:16.751Z,11.20
2019-02-20T14:43:35.300Z,10.97
2019-02-20T14:48:54.132Z,10.81
2019-02-20T14:54:12.758Z,10.80
2019-02-20T14:59:31.522Z,10.95
2019-02-20T15:04:50.166Z,11.12
2019-02-20T15:10:09.991Z,11.17
2019-02-20T15:15:28.651Z,10.97
2019-02-20T15:20:48.844Z,10.83
2019-02-20T15:26:07.467Z,10.65
2019-02-20T15:31:33.545Z,10.60
2019-02-20T15:36:46.452Z,10.36
2019-02-20T15:42:05.084Z,10.24
2019-02-20T15:47:23.729Z,10.19
2019-02-20T15:52:42.286Z,10.21
2019-02-20T15:58:01.109Z,10.09
2019-02-20T16:03:19.755Z,9.94
2019-02-20T16:08:38.386Z,9.95
2019-02-20T16:13:57.006Z,9.79
2019-02-20T16:19:15.582Z,9.81
2019-02-20T16:24:34.524Z,9.69
2019-02-20T16:29:53.162Z,9.60
2019-02-20T16:35:12.210Z,9.52
2019-02-20T16:40:30.860Z,9.43
2019-02-20T16:45:49.487Z,9.32
2019-02-20T16:51:20.310Z,9.13
2019-02-20T16:56:38.842Z,9.00
2019-02-20T17:01:57.463Z,8.92
2019-02-20T17:07:18.138Z,8.81
2019-02-20T17:12:37.465Z,8.63
2019-02-20T17:17:56.243Z,8.61
2019-02-20T17:23:14.865Z,8.41
2019-02-20T17:28:35.142Z,8.24
2019-02-20T17:33:53.693Z,8.11
2019-02-20T17:39:12.346Z,8.04
2019-02-20T17:44:31.113Z,7.96
2019-02-20T17:49:49.672Z,7.82
2019-02-20T17:55:09.867Z,7.80
2019-02-20T18:00:33.717Z,7.79
2019-02-20T18:05:52.565Z,7.63
2019-02-20T18:11:11.072Z,7.58
2019-02-20T18:16:29.630Z,7.47
2019-02-20T18:21:48.200Z,7.22
2019-02-20T18:27:06.820Z,7.13
2019-02-20T18:32:25.719Z,6.99
2019-02-20T18:37:44.347Z,6.91
2019-02-20T18:43:02.982Z,6.77
2019-02-20T18:48:21.603Z,6.65
2019-02-20T18:53:40.159Z,6.62
2019-02-20T18:58:58.777Z,6.39
2019-02-20T19:04:17.909Z,6.33
2019-02-20T19:09:36.534Z,6.11
2019-02-20T19:15:13.227Z,5.83
2019-02-20T19:20:50.977Z,5.52
2019-02-20T19:26:12.507Z,5.34
2019-02-20T19:31:42.768Z,5.28
2019-02-20T19:37:04.289Z,5.33
2019-02-20T19:42:28.550Z,5.44
2019-02-20T19:48:09.320Z,5.29
2019-02-20T19:53:53.787Z,5.44
2019-02-20T19:59:30.573Z,5.27
2019-02-20T20:05:01.253Z,5.13
2019-02-20T20:10:51.622Z,5.27
2019-02-20T20:16:42.117Z,5.04
2019-02-20T20:22:18.236Z,4.77
2019-02-20T20:27:52.056Z,4.52
2019-02-20T20:33:46.986Z,4.43
2019-02-20T20:39:15.260Z,4.25
2019-02-20T20:44:55.854Z,4.24
2019-02-20T20:50:17.433Z,4.30
2019-02-20T20:56:01.649Z,4.05
2019-02-20T21:01:43.942Z,3.89
2019-02-20T21:07:17.379Z,3.56
2019-02-20T21:13:10.617Z,3.63
2019-02-20T21:18:56.163Z,3.88
2019-02-20T21:24:26.531Z,3.62
2019-02-20T21:30:07.314Z,3.70
2019-02-20T21:35:37.431Z,3.84
2019-02-20T21:41:08.025Z,3.94
2019-02-20T21:46:48.827Z,4.64
2019-02-20T21:52:25.033Z,4.94
2019-02-20T21:57:48.349Z,5.15
2019-02-20T22:03:18.717Z,5.31
2019-02-20T22:08:50.204Z,5.47
2019-02-20T22:14:31.341Z,5.69
2019-02-20T22:20:10.449Z,5.82
2019-02-20T22:25:47.318Z,5.64
2019-02-20T22:31:43.959Z,5.73
2019-02-20T22:37:08.073Z,5.68
2019-02-20T22:42:38.667Z,5.86
2019-02-20T22:48:03.135Z,5.91
2019-02-20T22:54:01.274Z,6.08
2019-02-20T22:59:31.636Z,6.09
2019-02-20T23:04:58.941Z,5.90
2019-02-20T23:10:26.692Z,5.97
2019-02-20T23:15:45.249Z,5.91
2019-02-20T23:21:05.331Z,6.03
2019-02-20T23:26:23.963Z,6.18
2019-02-20T23:31:42.904Z,6.15
2019-02-20T23:37:01.457Z,6.13
2019-02-20T23:42:20.101Z,5.98
2019-02-20T23:47:38.875Z,5.97
2019-02-20T23:52:57.505Z,5.84
2019-02-20T23:58:16.016Z,5.65
